createdAt,value
2023-05-19T00:00:27.693Z,1854.00
2023-05-19T00:01:27.748Z,1904.00
2023-05-19T00:02:27.842Z,1893.00
2023-05-19T00:03:27.858Z,1881.00
2023-05-19T00:04:27.874Z,1847.00
2023-05-19T00:05:27.979Z,1864.00
2023-05-19T00:06:28.005Z,1840.00
2023-05-19T00:07:28.048Z,1874.00
2023-05-19T00:08:28.095Z,1831.00
2023-05-19T00:09:28.130Z,1865.00
2023-05-19T00:10:28.182Z,1873.00
2023-05-19T00:11:28.219Z,1877.00
2023-05-19T00:12:28.297Z,1858.00
2023-05-19T00:13:28.325Z,1868.00
2023-05-19T00:14:28.376Z,1896.00
2023-05-19T00:15:28.420Z,1890.00
2023-05-19T00:16:28.547Z,1921.00
2023-05-19T00:17:28.543Z,1963.00
2023-05-19T00:18:28.557Z,1907.00
2023-05-19T00:19:28.678Z,1957.00
2023-05-19T00:20:28.670Z,1990.00
2023-05-19T00:21:28.708Z,1953.00
2023-05-19T00:22:28.733Z,1974.00
2023-05-19T00:23:28.759Z,1918.00
2023-05-19T00:24:28.833Z,1917.00
2023-05-19T00:25:28.857Z,1904.00
2023-05-19T00:26:28.902Z,1973.00
2023-05-19T00:27:28.974Z,1970.00
2023-05-19T00:28:28.998Z,2005.00
2023-05-19T00:29:29.041Z,1959.00
2023-05-19T00:30:29.178Z,2016.00
2023-05-19T00:31:29.161Z,1959.00
2023-05-19T00:32:29.243Z,1977.00
2023-05-19T00:33:29.223Z,1945.00
2023-05-19T00:34:29.265Z,1941.00
2023-05-19T00:35:29.290Z,1967.00
2023-05-19T00:36:29.332Z,1986.00
2023-05-19T00:37:29.409Z,1963.00
2023-05-19T00:38:29.418Z,1934.00
2023-05-19T00:39:29.447Z,1936.00
2023-05-19T00:40:29.579Z,2023.00
2023-05-19T00:41:29.544Z,1963.00
2023-05-19T00:42:29.526Z,2003.00
2023-05-19T00:43:29.578Z,2032.00
2023-05-19T00:44:29.614Z,1994.00
2023-05-19T00:45:29.647Z,2019.00
2023-05-19T00:46:29.718Z,2079.00
2023-05-19T00:47:29.856Z,1994.00
2023-05-19T00:48:29.767Z,1949.00
2023-05-19T00:49:29.779Z,2032.00
2023-05-19T00:50:30.136Z,1965.00
2023-05-19T00:51:29.848Z,2021.00
2023-05-19T00:52:29.911Z,2076.00
2023-05-19T00:53:29.964Z,2093.00
2023-05-19T00:54:30.000Z,2048.00
2023-05-19T00:55:30.065Z,2087.00
2023-05-19T00:56:30.114Z,2072.00
2023-05-19T00:57:30.151Z,2120.00
2023-05-19T00:58:30.222Z,2123.00
2023-05-19T00:59:30.236Z,2124.00
2023-05-19T01:00:30.481Z,2076.00
2023-05-19T01:01:30.364Z,2109.00
2023-05-19T01:02:30.449Z,2097.00
2023-05-19T01:03:30.507Z,2080.00
2023-05-19T01:04:30.413Z,2092.00
2023-05-19T01:05:30.449Z,2096.00
2023-05-19T01:06:30.497Z,2094.00
2023-05-19T01:07:30.541Z,2050.00
2023-05-19T01:08:30.572Z,2085.00
2023-05-19T01:09:30.610Z,2099.00
2023-05-19T01:10:30.852Z,2127.00
2023-05-19T01:11:30.713Z,2100.00
2023-05-19T01:12:30.730Z,2064.00
2023-05-19T01:13:30.772Z,2041.00
2023-05-19T01:14:30.795Z,2004.00
2023-05-19T01:15:30.865Z,2081.00
2023-05-19T01:16:31.002Z,2090.00
2023-05-19T01:17:30.931Z,2058.00
2023-05-19T01:18:30.947Z,2138.00
2023-05-19T01:19:30.973Z,2091.00
2023-05-19T01:20:31.240Z,2115.00
2023-05-19T01:21:31.063Z,2108.00
2023-05-19T01:22:31.093Z,2129.00
2023-05-19T01:23:31.137Z,2102.00
2023-05-19T01:24:31.148Z,2106.00
2023-05-19T01:25:31.216Z,2128.00
2023-05-19T01:26:31.271Z,2117.00
2023-05-19T01:27:31.303Z,2158.00
2023-05-19T01:28:31.344Z,2099.00
2023-05-19T01:29:31.378Z,2105.00
2023-05-19T01:30:31.571Z,2122.00
2023-05-19T01:31:31.523Z,2146.00
2023-05-19T01:32:31.507Z,2127.00
2023-05-19T01:33:31.553Z,2126.00
2023-05-19T01:34:31.580Z,2123.00
2023-05-19T01:35:31.614Z,2068.00
2023-05-19T01:36:31.646Z,2106.00
2023-05-19T01:37:31.675Z,2129.00
2023-05-19T01:38:31.705Z,2147.00
2023-05-19T01:39:31.745Z,2113.00
2023-05-19T01:40:32.024Z,2078.00
2023-05-19T01:41:31.819Z,2095.00
2023-05-19T01:42:31.851Z,2089.00
2023-05-19T01:43:31.905Z,2117.00
2023-05-19T01:44:31.947Z,2129.00
2023-05-19T01:45:32.015Z,2093.00
2023-05-19T01:46:32.132Z,2085.00
2023-05-19T01:47:32.079Z,2106.00
2023-05-19T01:48:32.095Z,2070.00
2023-05-19T01:49:32.151Z,2069.00
2023-05-19T01:50:32.426Z,2138.00
2023-05-19T01:51:32.236Z,2113.00
2023-05-19T01:52:32.271Z,2077.00
2023-05-19T01:53:32.295Z,2114.00
2023-05-19T01:54:32.357Z,2153.00
2023-05-19T01:55:32.412Z,2200.00
2023-05-19T01:56:32.471Z,2202.00
2023-05-19T01:57:32.495Z,2207.00
2023-05-19T01:58:32.488Z,2197.00
2023-05-19T01:59:32.498Z,2173.00
2023-05-19T02:00:32.609Z,2182.00
2023-05-19T02:01:32.567Z,2154.00
2023-05-19T02:02:32.571Z,2134.00
2023-05-19T02:03:32.576Z,2133.00
2023-05-19T02:04:32.682Z,2137.00
2023-05-19T02:05:32.650Z,2137.00
2023-05-19T02:06:32.680Z,2127.00
2023-05-19T02:07:32.747Z,2119.00
2023-05-19T02:08:32.761Z,2110.00
2023-05-19T02:09:32.771Z,2105.00
2023-05-19T02:10:33.016Z,2120.00
2023-05-19T02:11:32.840Z,2120.00
2023-05-19T02:12:32.863Z,2140.00
2023-05-19T02:13:32.916Z,2147.00
2023-05-19T02:14:32.930Z,2118.00
2023-05-19T02:15:32.993Z,2135.00
2023-05-19T02:16:33.027Z,2134.00
2023-05-19T02:17:33.112Z,2109.00
2023-05-19T02:18:33.084Z,2114.00
2023-05-19T02:19:33.110Z,2135.00
2023-05-19T02:20:33.396Z,2127.00
2023-05-19T02:21:33.163Z,2138.00
2023-05-19T02:22:33.171Z,2130.00
2023-05-19T02:23:33.213Z,2102.00
2023-05-19T02:24:33.250Z,2098.00
2023-05-19T02:25:33.255Z,2098.00
2023-05-19T02:26:33.314Z,2097.00
2023-05-19T02:27:33.310Z,2118.00
2023-05-19T02:28:33.367Z,2136.00
2023-05-19T02:29:33.385Z,2131.00
2023-05-19T02:30:33.578Z,2120.00
2023-05-19T02:31:33.480Z,2128.00
2023-05-19T02:32:33.579Z,2136.00
2023-05-19T02:33:33.511Z,2087.00
2023-05-19T02:34:33.529Z,2100.00
2023-05-19T02:35:33.595Z,2114.00
2023-05-19T02:36:33.623Z,2133.00
2023-05-19T02:37:33.630Z,2111.00
2023-05-19T02:38:33.664Z,2117.00
2023-05-19T02:39:33.690Z,2134.00
2023-05-19T02:40:33.944Z,2126.00
2023-05-19T02:41:33.772Z,2097.00
2023-05-19T02:42:33.811Z,2130.00
2023-05-19T02:43:33.854Z,2095.00
2023-05-19T02:44:33.894Z,2111.00
2023-05-19T02:45:33.973Z,2114.00
2023-05-19T02:46:34.074Z,2128.00
2023-05-19T02:47:36.769Z,2101.00
2023-05-19T02:48:33.979Z,2120.00
2023-05-19T02:49:33.972Z,2114.00
2023-05-19T02:50:34.089Z,2079.00
2023-05-19T02:51:33.965Z,2077.00
2023-05-19T02:52:33.981Z,2110.00
2023-05-19T02:53:33.965Z,2115.00
2023-05-19T02:54:33.944Z,2117.00
2023-05-19T02:55:33.944Z,2101.00
2023-05-19T02:56:33.923Z,2106.00
2023-05-19T02:57:33.910Z,2095.00
2023-05-19T02:58:33.915Z,2088.00
2023-05-19T02:59:33.912Z,2099.00
2023-05-19T03:00:34.060Z,2086.00
2023-05-19T03:01:33.942Z,2092.00
2023-05-19T03:02:33.946Z,2097.00
2023-05-19T03:03:33.894Z,2098.00
2023-05-19T03:04:33.857Z,2097.00
2023-05-19T03:05:33.876Z,2088.00
2023-05-19T03:06:33.866Z,2105.00
2023-05-19T03:07:33.859Z,2103.00
2023-05-19T03:08:33.852Z,2101.00
2023-05-19T03:09:33.824Z,2132.00
2023-05-19T03:10:33.992Z,2121.00
2023-05-19T03:11:33.824Z,2111.00
2023-05-19T03:12:33.821Z,2105.00
2023-05-19T03:13:33.793Z,2104.00
2023-05-19T03:14:33.790Z,2123.00
2023-05-19T03:15:33.797Z,2126.00
2023-05-19T03:16:33.887Z,2101.00
2023-05-19T03:17:33.943Z,2121.00
2023-05-19T03:18:33.773Z,2111.00
2023-05-19T03:19:33.763Z,2103.00
2023-05-19T03:20:33.990Z,2114.00
2023-05-19T03:21:33.747Z,2114.00
2023-05-19T03:22:33.749Z,2125.00
2023-05-19T03:23:33.736Z,2094.00
2023-05-19T03:24:33.736Z,2104.00
2023-05-19T03:25:33.714Z,2116.00
2023-05-19T03:26:33.705Z,2113.00
2023-05-19T03:27:33.711Z,2126.00
2023-05-19T03:28:33.699Z,2124.00
2023-05-19T03:29:33.696Z,2103.00
2023-05-19T03:30:33.821Z,2129.00
2023-05-19T03:31:33.669Z,2129.00
2023-05-19T03:32:33.720Z,2124.00
2023-05-19T03:33:33.703Z,2104.00
2023-05-19T03:34:33.648Z,2123.00
2023-05-19T03:35:33.636Z,2119.00
2023-05-19T03:36:33.652Z,2126.00
2023-05-19T03:37:33.630Z,2119.00
2023-05-19T03:38:33.635Z,2122.00
2023-05-19T03:39:33.626Z,2122.00
2023-05-19T03:40:33.820Z,2129.00
2023-05-19T03:41:33.655Z,2128.00
2023-05-19T03:42:33.807Z,2112.00
2023-05-19T03:43:33.702Z,2111.00
2023-05-19T03:44:33.731Z,2120.00
2023-05-19T03:45:33.831Z,2112.00
2023-05-19T03:46:33.810Z,2108.00
2023-05-19T03:47:33.856Z,2136.00
2023-05-19T03:48:33.871Z,2127.00
2023-05-19T03:49:33.890Z,2131.00
2023-05-19T03:50:34.134Z,2113.00
2023-05-19T03:51:33.938Z,2109.00
2023-05-19T03:52:33.966Z,2121.00
2023-05-19T03:53:34.007Z,2126.00
2023-05-19T03:54:34.045Z,2117.00
2023-05-19T03:55:34.103Z,2081.00
2023-05-19T03:56:34.185Z,2090.00
2023-05-19T03:57:34.227Z,2106.00
2023-05-19T03:58:34.247Z,2102.00
2023-05-19T03:59:34.303Z,2089.00
2023-05-19T04:00:34.854Z,2086.00
2023-05-19T04:01:34.367Z,2111.00
2023-05-19T04:02:34.496Z,2120.00
2023-05-19T04:03:34.508Z,2115.00
2023-05-19T04:04:34.563Z,2121.00
2023-05-19T04:05:34.572Z,2128.00
2023-05-19T04:06:34.574Z,2123.00
2023-05-19T04:07:34.643Z,2141.00
2023-05-19T04:08:34.684Z,2119.00
2023-05-19T04:09:34.711Z,2133.00
2023-05-19T04:10:34.777Z,2111.00
2023-05-19T04:11:34.773Z,2120.00
2023-05-19T04:12:34.825Z,2114.00
2023-05-19T04:13:34.819Z,2132.00
2023-05-19T04:14:34.873Z,2115.00
2023-05-19T04:15:34.981Z,2114.00
2023-05-19T04:16:34.945Z,2102.00
2023-05-19T04:17:35.141Z,2106.00
2023-05-19T04:18:35.013Z,2118.00
2023-05-19T04:19:35.080Z,2122.00
2023-05-19T04:20:35.121Z,2119.00
2023-05-19T04:21:35.248Z,2109.00
2023-05-19T04:22:35.240Z,2097.00
2023-05-19T04:23:35.247Z,2107.00
2023-05-19T04:24:35.298Z,2105.00
2023-05-19T04:25:35.342Z,2106.00
2023-05-19T04:26:35.395Z,2112.00
2023-05-19T04:27:35.414Z,2135.00
2023-05-19T04:28:35.441Z,2139.00
2023-05-19T04:29:35.528Z,2143.00
2023-05-19T04:30:35.635Z,2124.00
2023-05-19T04:31:35.678Z,2114.00
2023-05-19T04:32:35.679Z,2098.00
2023-05-19T04:33:35.716Z,2118.00
2023-05-19T04:34:35.761Z,2125.00
2023-05-19T04:35:35.812Z,2113.00
2023-05-19T04:36:35.941Z,2093.00
2023-05-19T04:37:35.922Z,2104.00
2023-05-19T04:38:36.002Z,2109.00
2023-05-19T04:39:36.041Z,2107.00
2023-05-19T04:40:36.115Z,2111.00
2023-05-19T04:41:36.167Z,2105.00
2023-05-19T04:42:36.219Z,2085.00
2023-05-19T04:43:36.311Z,2095.00
2023-05-19T04:44:36.359Z,2080.00
2023-05-19T04:45:36.427Z,2081.00
2023-05-19T04:46:36.514Z,2072.00
2023-05-19T04:47:36.574Z,2068.00
2023-05-19T04:48:36.591Z,2081.00
2023-05-19T04:49:36.660Z,2072.00
2023-05-19T04:50:36.700Z,2084.00
2023-05-19T04:51:36.857Z,2080.00
2023-05-19T04:52:36.802Z,2088.00
2023-05-19T04:53:36.855Z,2086.00
2023-05-19T04:54:36.875Z,2066.00
2023-05-19T04:55:36.928Z,2070.00
2023-05-19T04:56:36.960Z,2073.00
2023-05-19T04:57:36.988Z,2046.00
2023-05-19T04:58:37.003Z,2079.00
2023-05-19T04:59:37.052Z,2061.00
2023-05-19T05:00:37.104Z,2015.00
2023-05-19T05:01:37.139Z,2033.00
2023-05-19T05:02:37.257Z,2075.00
2023-05-19T05:03:37.336Z,2065.00
2023-05-19T05:04:37.211Z,2032.00
2023-05-19T05:05:37.227Z,2063.00
2023-05-19T05:06:37.256Z,2062.00
2023-05-19T05:07:37.292Z,2092.00
2023-05-19T05:08:37.372Z,2099.00
2023-05-19T05:09:37.380Z,2071.00
2023-05-19T05:10:37.412Z,2083.00
2023-05-19T05:11:37.467Z,2088.00
2023-05-19T05:12:37.656Z,2040.00
2023-05-19T05:13:37.575Z,2017.00
2023-05-19T05:14:37.683Z,2034.00
2023-05-19T05:15:37.653Z,2038.00
2023-05-19T05:16:37.772Z,2024.00
2023-05-19T05:17:37.873Z,2022.00
2023-05-19T05:18:37.921Z,2057.00
2023-05-19T05:19:37.849Z,2077.00
2023-05-19T05:20:37.912Z,2034.00
2023-05-19T05:21:37.960Z,2042.00
2023-05-19T05:22:37.988Z,2036.00
2023-05-19T05:23:38.056Z,2038.00
2023-05-19T05:24:38.101Z,2064.00
2023-05-19T05:25:38.157Z,1980.00
2023-05-19T05:26:38.217Z,2006.00
2023-05-19T05:27:38.307Z,2039.00
2023-05-19T05:28:38.322Z,2029.00
2023-05-19T05:29:38.396Z,2004.00
2023-05-19T05:30:38.445Z,2007.00
2023-05-19T05:31:38.484Z,1998.00
2023-05-19T05:32:38.696Z,1987.00
2023-05-19T05:33:38.715Z,1978.00
2023-05-19T05:34:38.745Z,1997.00
2023-05-19T05:35:38.693Z,1971.00
2023-05-19T05:36:38.751Z,1916.00
2023-05-19T05:37:38.796Z,1922.00
2023-05-19T05:38:38.836Z,1916.00
2023-05-19T05:39:38.880Z,1892.00
2023-05-19T05:40:38.909Z,1850.00
2023-05-19T05:41:38.968Z,1839.00
2023-05-19T05:42:38.978Z,1737.00
2023-05-19T05:43:39.028Z,1754.00
2023-05-19T05:44:39.056Z,1762.00
2023-05-19T05:45:39.135Z,1864.00
2023-05-19T05:46:39.184Z,1721.00
2023-05-19T05:47:39.241Z,1690.00
2023-05-19T05:48:39.237Z,1684.00
2023-05-19T05:49:39.268Z,1728.00
2023-05-19T05:50:39.336Z,1691.00
2023-05-19T05:51:39.352Z,1658.00
2023-05-19T05:52:39.399Z,1612.00
2023-05-19T05:53:39.471Z,1550.00
2023-05-19T05:54:39.555Z,1527.00
2023-05-19T05:55:39.541Z,1514.00
2023-05-19T05:56:39.582Z,1564.00
2023-05-19T05:57:39.608Z,1548.00
2023-05-19T05:58:39.655Z,1485.00
2023-05-19T05:59:39.679Z,1514.00
2023-05-19T06:00:39.727Z,1528.00
2023-05-19T06:01:39.838Z,1479.00
2023-05-19T06:02:39.935Z,1488.00
2023-05-19T06:03:39.923Z,1525.00
2023-05-19T06:04:39.861Z,1543.00
2023-05-19T06:05:39.935Z,1555.00
2023-05-19T06:06:39.960Z,1572.00
2023-05-19T06:07:39.978Z,1519.00
2023-05-19T06:08:40.053Z,1507.00
2023-05-19T06:09:40.097Z,1516.00
2023-05-19T06:10:40.119Z,1475.00
2023-05-19T06:11:40.162Z,1511.00
2023-05-19T06:12:40.208Z,1501.00
2023-05-19T06:13:40.237Z,1509.00
2023-05-19T06:14:40.264Z,1499.00
2023-05-19T06:15:40.347Z,1480.00
2023-05-19T06:16:40.471Z,1442.00
2023-05-19T06:17:40.395Z,1376.00
2023-05-19T06:18:40.468Z,1445.00
2023-05-19T06:19:40.450Z,1469.00
2023-05-19T06:20:40.508Z,1448.00
2023-05-19T06:21:40.545Z,1452.00
2023-05-19T06:22:40.556Z,1396.00
2023-05-19T06:23:40.597Z,1385.00
2023-05-19T06:24:40.628Z,1370.00
2023-05-19T06:25:40.643Z,1393.00
2023-05-19T06:26:40.702Z,1383.00
2023-05-19T06:27:40.732Z,1345.00
2023-05-19T06:28:40.761Z,1377.00
2023-05-19T06:29:40.828Z,1427.00
2023-05-19T06:30:40.831Z,1434.00
2023-05-19T06:31:40.924Z,1461.00
2023-05-19T06:32:40.983Z,1435.00
2023-05-19T06:33:40.914Z,1469.00
2023-05-19T06:34:40.957Z,1463.00
2023-05-19T06:35:41.001Z,1429.00
2023-05-19T06:36:41.052Z,1390.00
2023-05-19T06:37:41.065Z,1387.00
2023-05-19T06:38:41.096Z,1412.00
2023-05-19T06:39:41.111Z,1420.00
2023-05-19T06:40:41.148Z,1407.00
2023-05-19T06:41:41.193Z,1416.00
2023-05-19T06:42:41.248Z,1399.00
2023-05-19T06:43:41.235Z,1388.00
2023-05-19T06:44:41.244Z,1360.00
2023-05-19T06:45:41.255Z,1341.00
2023-05-19T06:46:41.332Z,1371.00
2023-05-19T06:47:41.374Z,1381.00
2023-05-19T06:48:41.297Z,1335.00
2023-05-19T06:49:41.327Z,1303.00
2023-05-19T06:50:41.321Z,1304.00
2023-05-19T06:51:41.355Z,1349.00
2023-05-19T06:52:41.361Z,1374.00
2023-05-19T06:53:41.365Z,1419.00
2023-05-19T06:54:41.440Z,1381.00
2023-05-19T06:55:54.420Z,1398.00
2023-05-19T06:56:42.401Z,1400.00
2023-05-19T06:57:41.415Z,1400.00
2023-05-19T06:58:41.382Z,1414.00
2023-05-19T06:59:41.355Z,1407.00
2023-05-19T07:00:41.374Z,1423.00
2023-05-19T07:01:41.386Z,1460.00
2023-05-19T07:02:41.399Z,1465.00
2023-05-19T07:03:41.405Z,1425.00
2023-05-19T07:04:41.317Z,1415.00
2023-05-19T07:05:41.314Z,1388.00
2023-05-19T07:06:41.313Z,1449.00
2023-05-19T07:07:41.300Z,1409.00
2023-05-19T07:08:41.305Z,1431.00
2023-05-19T07:09:41.284Z,1418.00
2023-05-19T07:10:41.279Z,1419.00
2023-05-19T07:11:41.273Z,1357.00
2023-05-19T07:12:41.256Z,1345.00
2023-05-19T07:13:41.256Z,1375.00
2023-05-19T07:14:41.261Z,1344.00
2023-05-19T07:15:41.249Z,1318.00
2023-05-19T07:16:41.293Z,1321.00
2023-05-19T07:17:41.321Z,1294.00
2023-05-19T07:18:41.309Z,1263.00
2023-05-19T07:19:41.270Z,1286.00
2023-05-19T07:20:41.295Z,1233.00
2023-05-19T07:21:41.304Z,1345.00
2023-05-19T07:22:41.318Z,1216.00
2023-05-19T07:23:41.332Z,1275.00
2023-05-19T07:24:41.331Z,1208.00
2023-05-19T07:25:41.355Z,1262.00
2023-05-19T07:26:41.486Z,1291.00
2023-05-19T07:27:41.364Z,1238.00
2023-05-19T07:28:41.858Z,1245.00
2023-05-19T07:29:41.386Z,1229.00
2023-05-19T07:30:41.396Z,1188.00
2023-05-19T07:31:41.456Z,1152.00
2023-05-19T07:32:41.446Z,1087.00
2023-05-19T07:33:41.460Z,1086.00
2023-05-19T07:34:41.450Z,1120.00
2023-05-19T07:35:41.432Z,1057.00
2023-05-19T07:36:41.438Z,1027.00
2023-05-19T07:37:41.456Z,1095.00
2023-05-19T07:38:41.508Z,1110.00
2023-05-19T07:39:41.466Z,1083.00
2023-05-19T07:40:41.465Z,1083.00
2023-05-19T07:41:41.475Z,1083.00
2023-05-19T07:42:41.552Z,1076.00
2023-05-19T07:43:41.467Z,1064.00
2023-05-19T07:44:41.453Z,1114.00
2023-05-19T07:45:41.505Z,1089.00
2023-05-19T07:46:41.460Z,1104.00
2023-05-19T07:47:41.495Z,1083.00
2023-05-19T07:48:41.486Z,1063.00
2023-05-19T07:49:41.463Z,1138.00
2023-05-19T07:50:41.465Z,1085.00
2023-05-19T07:51:41.435Z,1079.00
2023-05-19T07:52:41.457Z,1147.00
2023-05-19T07:53:41.527Z,1138.00
2023-05-19T07:54:41.515Z,1081.00
2023-05-19T07:55:41.556Z,1083.00
2023-05-19T07:56:41.621Z,1052.00
2023-05-19T07:57:41.682Z,1038.00
2023-05-19T07:58:41.826Z,999.00
2023-05-19T07:59:41.747Z,1077.00
2023-05-19T08:00:41.797Z,1092.00
2023-05-19T08:01:41.855Z,999.00
2023-05-19T08:02:41.988Z,919.00
2023-05-19T08:03:42.058Z,1247.00
2023-05-19T08:04:42.071Z,1095.00
2023-05-19T08:05:42.079Z,1168.00
2023-05-19T08:06:42.120Z,1170.00
2023-05-19T08:07:42.183Z,1103.00
2023-05-19T08:08:42.242Z,963.00
2023-05-19T08:09:42.300Z,853.00
2023-05-19T08:10:42.336Z,825.00
2023-05-19T08:11:42.391Z,856.00
2023-05-19T08:12:42.432Z,928.00
2023-05-19T08:13:42.481Z,844.00
2023-05-19T08:14:42.524Z,1031.00
2023-05-19T08:15:42.595Z,1101.00
2023-05-19T08:16:42.581Z,1241.00
2023-05-19T08:17:42.647Z,1280.00
2023-05-19T08:18:42.706Z,1272.00
2023-05-19T08:19:42.730Z,1316.00
2023-05-19T08:20:42.730Z,1288.00
2023-05-19T08:21:42.769Z,1250.00
2023-05-19T08:22:42.811Z,1230.00
2023-05-19T08:23:42.839Z,1260.00
2023-05-19T08:24:42.863Z,1327.00
2023-05-19T08:25:42.926Z,1303.00
2023-05-19T08:26:42.979Z,1255.00
2023-05-19T08:27:43.024Z,1196.00
2023-05-19T08:28:43.094Z,1160.00
2023-05-19T08:29:43.147Z,1137.00
2023-05-19T08:30:43.162Z,1125.00
2023-05-19T08:31:43.258Z,1078.00
2023-05-19T08:32:43.209Z,1153.00
2023-05-19T08:33:43.189Z,1132.00
2023-05-19T08:34:43.211Z,1087.00
2023-05-19T08:35:43.218Z,1047.00
2023-05-19T08:36:43.232Z,1166.00
2023-05-19T08:37:43.226Z,1149.00
2023-05-19T08:38:43.231Z,1143.00
2023-05-19T08:39:43.235Z,1179.00
2023-05-19T08:40:43.247Z,1161.00
2023-05-19T08:41:43.234Z,1127.00
2023-05-19T08:42:43.224Z,1114.00
2023-05-19T08:43:43.219Z,1101.00
2023-05-19T08:44:43.238Z,1170.00
2023-05-19T08:45:43.232Z,1139.00
2023-05-19T08:46:43.392Z,1178.00
2023-05-19T08:47:43.262Z,1139.00
2023-05-19T08:48:43.224Z,1138.00
2023-05-19T08:49:43.226Z,1188.00
2023-05-19T08:50:43.244Z,1211.00
2023-05-19T08:51:43.244Z,1208.00
2023-05-19T08:52:44.100Z,1170.00
2023-05-19T08:53:43.243Z,1204.00
2023-05-19T08:54:43.235Z,1211.00
2023-05-19T08:55:43.262Z,1222.00
2023-05-19T08:56:43.239Z,1198.00
2023-05-19T08:57:43.251Z,1243.00
2023-05-19T08:58:43.273Z,1220.00
2023-05-19T08:59:43.281Z,1222.00
2023-05-19T09:00:43.303Z,1204.00
2023-05-19T09:01:43.353Z,1192.00
2023-05-19T09:02:50.680Z,1187.00
2023-05-19T09:03:44.356Z,1169.00
2023-05-19T09:04:43.341Z,1157.00
2023-05-19T09:05:43.322Z,1098.00
2023-05-19T09:06:43.275Z,1019.00
2023-05-19T09:07:43.282Z,1003.00
2023-05-19T09:08:43.241Z,1106.00
2023-05-19T09:09:43.263Z,1010.00
2023-05-19T09:10:43.257Z,1036.00
2023-05-19T09:11:43.236Z,993.00
2023-05-19T09:12:43.237Z,1024.00
2023-05-19T09:13:43.278Z,1122.00
2023-05-19T09:14:43.349Z,1250.00
2023-05-19T09:15:43.387Z,1336.00
2023-05-19T09:16:43.484Z,1450.00
2023-05-19T09:17:43.487Z,1410.00
2023-05-19T09:18:43.567Z,1414.00
2023-05-19T09:19:43.597Z,1444.00
2023-05-19T09:20:43.618Z,1319.00
2023-05-19T09:21:44.683Z,1258.00
2023-05-19T09:22:43.693Z,1275.00
2023-05-19T09:23:43.744Z,1307.00
2023-05-19T09:24:43.777Z,1244.00
2023-05-19T09:25:43.818Z,1287.00
2023-05-19T09:26:43.888Z,1245.00
2023-05-19T09:27:43.904Z,1308.00
2023-05-19T09:28:43.938Z,1258.00
2023-05-19T09:29:43.987Z,1182.00
2023-05-19T09:30:44.004Z,1212.00
2023-05-19T09:31:44.109Z,1190.00
2023-05-19T09:32:44.134Z,1090.00
2023-05-19T09:33:45.988Z,1115.00
2023-05-19T09:34:44.169Z,1183.00
2023-05-19T09:35:44.209Z,1088.00
2023-05-19T09:36:44.268Z,1030.00
2023-05-19T09:37:44.279Z,1005.00
2023-05-19T09:38:44.301Z,999.00
2023-05-19T09:39:44.362Z,1043.00
2023-05-19T09:40:44.369Z,1008.00
2023-05-19T09:41:44.422Z,1022.00
2023-05-19T09:42:44.517Z,1117.00
2023-05-19T09:43:44.520Z,1174.00
2023-05-19T09:44:44.520Z,1165.00
2023-05-19T09:45:44.573Z,1093.00
2023-05-19T09:46:44.759Z,1000.00
2023-05-19T09:47:44.685Z,1040.00
2023-05-19T09:48:44.662Z,1090.00
2023-05-19T09:49:44.665Z,1106.00
2023-05-19T09:50:44.702Z,1052.00
2023-05-19T09:51:44.746Z,1147.00
2023-05-19T09:52:44.772Z,1021.00
2023-05-19T09:53:44.851Z,1033.00
2023-05-19T09:54:44.856Z,1021.00
2023-05-19T09:55:44.924Z,1047.00
2023-05-19T09:56:44.984Z,1167.00
2023-05-19T09:57:45.019Z,1052.00
2023-05-19T09:58:45.110Z,1064.00
2023-05-19T09:59:45.167Z,1018.00
2023-05-19T10:00:45.211Z,930.00
2023-05-19T10:01:45.306Z,990.00
2023-05-19T10:02:45.351Z,989.00
2023-05-19T10:03:45.319Z,997.00
2023-05-19T10:04:45.386Z,984.00
2023-05-19T10:05:45.332Z,957.00
2023-05-19T10:06:45.347Z,912.00
2023-05-19T10:07:45.365Z,1024.00
2023-05-19T10:08:45.373Z,1024.00
2023-05-19T10:09:45.405Z,967.00
2023-05-19T10:10:45.413Z,956.00
2023-05-19T10:11:45.415Z,873.00
2023-05-19T10:12:45.425Z,909.00
2023-05-19T10:13:45.422Z,912.00
2023-05-19T10:14:45.442Z,919.00
2023-05-19T10:15:57.327Z,921.00
2023-05-19T10:16:46.496Z,923.00
2023-05-19T10:17:45.461Z,919.00
2023-05-19T10:18:45.453Z,931.00
2023-05-19T10:19:45.406Z,926.00
2023-05-19T10:20:45.393Z,970.00
2023-05-19T10:21:45.413Z,951.00
2023-05-19T10:22:45.399Z,912.00
2023-05-19T10:23:45.390Z,939.00
2023-05-19T10:24:45.370Z,952.00
2023-05-19T10:25:45.374Z,926.00
2023-05-19T10:26:45.374Z,888.00
2023-05-19T10:27:45.350Z,911.00
2023-05-19T10:28:45.332Z,930.00
2023-05-19T10:29:45.327Z,896.00
2023-05-19T10:30:45.312Z,878.00
2023-05-19T10:31:45.362Z,822.00
2023-05-19T10:32:45.354Z,840.00
2023-05-19T10:33:45.316Z,845.00
2023-05-19T10:34:45.296Z,854.00
2023-05-19T10:35:47.204Z,814.00
2023-05-19T10:36:45.291Z,782.00
2023-05-19T10:37:45.259Z,750.00
2023-05-19T10:38:45.262Z,766.00
2023-05-19T10:39:45.272Z,725.00
2023-05-19T10:40:45.339Z,769.00
2023-05-19T10:41:46.872Z,724.00
2023-05-19T10:42:45.378Z,806.00
2023-05-19T10:43:45.442Z,748.00
2023-05-19T10:44:45.490Z,805.00
2023-05-19T10:45:45.547Z,803.00
2023-05-19T10:46:45.661Z,861.00
2023-05-19T10:47:45.677Z,873.00
2023-05-19T10:48:45.786Z,958.00
2023-05-19T10:49:45.772Z,916.00
2023-05-19T10:50:45.851Z,869.00
2023-05-19T10:51:45.974Z,912.00
2023-05-19T10:52:45.964Z,895.00
2023-05-19T10:53:46.009Z,838.00
2023-05-19T10:54:46.073Z,862.00
2023-05-19T10:55:46.139Z,742.00
2023-05-19T10:56:46.211Z,761.00
2023-05-19T10:57:46.256Z,844.00
2023-05-19T10:58:46.290Z,800.00
2023-05-19T10:59:46.345Z,929.00
2023-05-19T11:00:46.393Z,909.00
2023-05-19T11:01:46.470Z,925.00
2023-05-19T11:02:46.521Z,891.00
2023-05-19T11:03:46.554Z,818.00
2023-05-19T11:04:48.319Z,911.00
2023-05-19T11:05:46.577Z,767.00
2023-05-19T11:06:46.588Z,803.00
2023-05-19T11:07:46.556Z,874.00
2023-05-19T11:08:46.571Z,889.00
2023-05-19T11:09:46.541Z,752.00
2023-05-19T11:10:46.698Z,723.00
2023-05-19T11:11:46.542Z,807.00
2023-05-19T11:12:46.525Z,788.00
2023-05-19T11:13:46.559Z,708.00
2023-05-19T11:14:46.568Z,772.00
2023-05-19T11:15:46.510Z,760.00
2023-05-19T11:16:46.585Z,769.00
2023-05-19T11:17:46.573Z,683.00
2023-05-19T11:18:46.593Z,735.00
2023-05-19T11:19:46.465Z,765.00
2023-05-19T11:20:46.519Z,696.00
2023-05-19T11:21:46.487Z,622.00
2023-05-19T11:22:46.435Z,643.00
2023-05-19T11:23:47.281Z,656.00
2023-05-19T11:24:46.429Z,643.00
2023-05-19T11:25:46.411Z,670.00
2023-05-19T11:26:46.413Z,664.00
2023-05-19T11:27:46.420Z,657.00
2023-05-19T11:28:46.392Z,750.00
2023-05-19T11:29:46.424Z,681.00
2023-05-19T11:30:46.401Z,806.00
2023-05-19T11:31:46.418Z,768.00
2023-05-19T11:32:46.389Z,712.00
2023-05-19T11:33:46.374Z,746.00
2023-05-19T11:34:46.370Z,774.00
2023-05-19T11:35:46.336Z,797.00
2023-05-19T11:36:46.385Z,758.00
2023-05-19T11:37:46.323Z,776.00
2023-05-19T11:38:46.314Z,794.00
2023-05-19T11:39:46.346Z,786.00
2023-05-19T11:40:46.313Z,734.00
2023-05-19T11:41:46.316Z,737.00
2023-05-19T11:42:46.319Z,748.00
2023-05-19T11:43:46.333Z,729.00
2023-05-19T11:44:46.313Z,711.00
2023-05-19T11:45:46.317Z,717.00
2023-05-19T11:46:46.423Z,719.00
2023-05-19T11:48:01.400Z,760.00
2023-05-19T11:48:47.261Z,757.00
2023-05-19T11:49:46.240Z,731.00
2023-05-19T11:50:46.249Z,725.00
2023-05-19T11:51:46.250Z,720.00
2023-05-19T11:52:46.305Z,691.00
2023-05-19T11:53:46.203Z,679.00
2023-05-19T11:54:46.212Z,652.00
2023-05-19T11:55:46.469Z,711.00
2023-05-19T11:56:46.183Z,683.00
2023-05-19T11:57:56.081Z,650.00
2023-05-19T11:58:47.270Z,651.00
2023-05-19T11:59:46.190Z,651.00
2023-05-19T12:00:46.362Z,652.00
2023-05-19T12:01:46.150Z,660.00
2023-05-19T12:02:46.329Z,632.00
2023-05-19T12:03:46.297Z,625.00
2023-05-19T12:04:46.234Z,619.00
2023-05-19T12:05:47.202Z,629.00
2023-05-19T12:06:46.277Z,600.00
2023-05-19T12:07:46.122Z,596.00
2023-05-19T12:08:46.110Z,605.00
2023-05-19T12:09:46.141Z,584.00
2023-05-19T12:10:46.209Z,595.00